createdAt,value
2017-04-28T00:00:32.136Z,85.3
2017-04-28T00:01:41.670Z,85.3
2017-04-28T00:02:50.558Z,85.49
2017-04-28T00:04:00.425Z,85.3
2017-04-28T00:05:09.648Z,85.49
2017-04-28T00:06:18.792Z,85.3
2017-04-28T00:07:27.686Z,85.21
2017-04-28T00:08:36.577Z,85.49
2017-04-28T00:09:46.438Z,85.11
2017-04-28T00:10:55.977Z,84.92
2017-04-28T00:12:05.393Z,85.11
2017-04-28T00:13:15.256Z,85.59
2017-04-28T00:14:24.472Z,85.4
2017-04-28T00:15:33.358Z,84.64
2017-04-28T00:16:42.250Z,84.83
2017-04-28T00:17:52.413Z,84.92
2017-04-28T00:19:02.282Z,84.83
2017-04-28T00:20:11.502Z,85.4
2017-04-28T00:21:20.715Z,85.3
2017-04-28T00:22:29.932Z,86.16
2017-04-28T00:23:39.342Z,85.59
2017-04-28T00:24:48.877Z,85.87
2017-04-28T00:25:58.411Z,85.59
2017-04-28T00:27:07.298Z,85.4
2017-04-28T00:28:16.186Z,85.3
2017-04-28T00:29:25.451Z,85.68
2017-04-28T00:30:34.665Z,85.68
2017-04-28T00:31:43.877Z,85.68
2017-04-28T00:32:52.765Z,84.83
2017-04-28T00:34:01.975Z,84.83
2017-04-28T00:35:11.348Z,85.11
2017-04-28T00:36:20.236Z,84.74
2017-04-28T00:37:29.123Z,84.92
2017-04-28T00:38:38.011Z,85.3
2017-04-28T00:39:47.876Z,85.4
2017-04-28T00:40:57.816Z,85.21
2017-04-28T00:42:07.041Z,84.83
2017-04-28T00:43:15.928Z,85.3
2017-04-28T00:44:25.471Z,85.3
2017-04-28T00:45:35.005Z,85.49
2017-04-28T00:46:44.369Z,85.68
2017-04-28T00:47:53.257Z,85.68
2017-04-28T00:49:02.478Z,85.68
2017-04-28T00:50:12.340Z,85.4
2017-04-28T00:51:21.229Z,85.59
2017-04-28T00:52:30.594Z,85.78
2017-04-28T00:53:39.811Z,85.49
2017-04-28T00:54:49.032Z,85.49
2017-04-28T00:55:58.243Z,85.49
2017-04-28T00:57:07.127Z,85.97
2017-04-28T00:58:16.815Z,86.16
2017-04-28T00:59:26.025Z,86.16
2017-04-28T01:00:34.918Z,86.16
2017-04-28T01:01:44.138Z,86.16
2017-04-28T01:02:53.355Z,86.16
2017-04-28T01:04:02.891Z,85.68
2017-04-28T01:05:12.101Z,86.07
2017-04-28T01:06:20.990Z,86.16
2017-04-28T01:07:30.197Z,86.16
2017-04-28T01:08:39.412Z,85.87
2017-04-28T01:09:49.097Z,86.54
2017-04-28T01:10:57.984Z,86.54
2017-04-28T01:12:07.847Z,86.54
2017-04-28T01:13:17.064Z,86.91
2017-04-28T01:14:26.602Z,86.54
2017-04-28T01:15:35.914Z,86.72
2017-04-28T01:16:45.132Z,86.72
2017-04-28T01:17:54.667Z,86.63
2017-04-28T01:19:04.208Z,87.3
2017-04-28T01:20:13.099Z,87.01
2017-04-28T01:21:22.236Z,87.11
2017-04-28T01:22:31.449Z,87.3
2017-04-28T01:23:40.341Z,87.39
2017-04-28T01:24:49.555Z,87.11
2017-04-28T01:25:59.100Z,87.87
2017-04-28T01:27:08.154Z,87.87
2017-04-28T01:28:17.363Z,87.87
2017-04-28T01:29:26.901Z,87.87
2017-04-28T01:30:36.139Z,87.39
2017-04-28T01:31:45.027Z,87.49
2017-04-28T01:32:54.215Z,87.49
2017-04-28T01:34:03.104Z,87.68
2017-04-28T01:35:12.644Z,88.06
2017-04-28T01:36:21.531Z,88.43
2017-04-28T01:37:30.738Z,87.96
2017-04-28T01:38:40.750Z,88.15
2017-04-28T01:39:50.292Z,88.34
2017-04-28T01:40:59.507Z,88.72
2017-04-28T01:42:08.722Z,88.72
2017-04-28T01:43:17.933Z,88.24
2017-04-28T01:44:27.576Z,88.34
2017-04-28T01:45:36.471Z,88.06
2017-04-28T01:46:45.681Z,88.43
2017-04-28T01:47:54.569Z,88.62
2017-04-28T01:49:03.787Z,88.91
2017-04-28T01:50:13.350Z,88.15
2017-04-28T01:51:22.239Z,88.62
2017-04-28T01:52:31.452Z,88.91
2017-04-28T01:53:40.994Z,88.81
2017-04-28T01:54:50.529Z,88.34
2017-04-28T01:56:00.113Z,88.34
2017-04-28T01:57:09.051Z,89
2017-04-28T01:58:18.261Z,88.72
2017-04-28T01:59:27.805Z,89
2017-04-28T02:00:36.698Z,88.43
2017-04-28T02:01:46.058Z,88.91
2017-04-28T02:02:55.277Z,89.2
2017-04-28T02:04:04.818Z,89.1
2017-04-28T02:05:14.032Z,88.81
2017-04-28T02:06:23.570Z,89.2
2017-04-28T02:07:32.517Z,89.1
2017-04-28T02:08:42.070Z,89
2017-04-28T02:09:51.280Z,88.62
2017-04-28T02:11:00.822Z,88.43
2017-04-28T02:12:10.032Z,88.91
2017-04-28T02:13:19.673Z,88.72
2017-04-28T02:14:29.218Z,88.53
2017-04-28T02:15:38.430Z,88.24
2017-04-28T02:16:47.636Z,88.15
2017-04-28T02:17:56.849Z,88.15
2017-04-28T02:19:05.886Z,88.62
2017-04-28T02:20:14.776Z,88.43
2017-04-28T02:21:24.361Z,88.34
2017-04-28T02:22:33.579Z,88.34
2017-04-28T02:23:42.513Z,88.34
2017-04-28T02:24:51.934Z,89.2
2017-04-28T02:26:01.799Z,88.91
2017-04-28T02:27:10.784Z,88.72
2017-04-28T02:28:19.998Z,88.15
2017-04-28T02:29:29.547Z,88.72
2017-04-28T02:30:39.082Z,89.2
2017-04-28T02:31:48.296Z,89.1
2017-04-28T02:32:57.834Z,88.72
2017-04-28T02:34:07.374Z,89.1
2017-04-28T02:35:16.915Z,89.1
2017-04-28T02:36:25.802Z,89.39
2017-04-28T02:37:34.691Z,89.67
2017-04-28T02:38:43.579Z,89.67
2017-04-28T02:39:53.448Z,90.24
2017-04-28T02:41:02.987Z,90.14
2017-04-28T02:42:12.255Z,90.9
2017-04-28T02:43:21.794Z,91.09
2017-04-28T02:44:31.657Z,91.09
2017-04-28T02:45:40.545Z,91
2017-04-28T02:46:49.763Z,91.94
2017-04-28T02:47:59.134Z,91.66
2017-04-28T02:49:08.670Z,91.38
2017-04-28T02:50:17.889Z,91.56
2017-04-28T02:51:27.109Z,92.52
2017-04-28T02:52:35.997Z,92.52
2017-04-28T02:53:45.857Z,92.14
2017-04-28T02:54:55.395Z,91.56
2017-04-28T02:56:05.262Z,91.56
2017-04-28T02:57:14.476Z,91.56
2017-04-28T02:58:23.362Z,91.28
2017-04-28T02:59:33.201Z,91.38
2017-04-28T03:00:43.094Z,91.66
2017-04-28T03:01:51.981Z,91.94
2017-04-28T03:03:01.196Z,92.9
2017-04-28T03:04:10.414Z,92.71
2017-04-28T03:05:19.927Z,92.23
2017-04-28T03:06:29.137Z,91.28
2017-04-28T03:07:38.027Z,91.85
2017-04-28T03:08:47.570Z,92.23
2017-04-28T03:09:57.445Z,92.52
2017-04-28T03:11:06.810Z,92.14
2017-04-28T03:12:16.025Z,91.94
2017-04-28T03:13:25.238Z,92.61
2017-04-28T03:14:35.115Z,92.52
2017-04-28T03:15:44.007Z,92.33
2017-04-28T03:16:53.639Z,93.46
2017-04-28T03:18:02.525Z,91.94
2017-04-28T03:19:11.418Z,93.08
2017-04-28T03:20:21.610Z,91.66
2017-04-28T03:21:30.816Z,91.38
2017-04-28T03:22:39.859Z,91.94
2017-04-28T03:23:49.100Z,92.42
2017-04-28T03:24:58.318Z,92.42
2017-04-28T03:26:07.531Z,92.52
2017-04-28T03:27:16.423Z,91.38
2017-04-28T03:28:26.111Z,90.81
2017-04-28T03:29:35.972Z,90.43
2017-04-28T03:30:44.859Z,91.09
2017-04-28T03:31:53.751Z,91.09
2017-04-28T03:33:02.972Z,90.81
2017-04-28T03:34:12.331Z,90.52
2017-04-28T03:35:21.226Z,91
2017-04-28T03:36:30.762Z,90.71
2017-04-28T03:37:39.650Z,90.81
2017-04-28T03:38:49.183Z,91.47
2017-04-28T03:39:58.552Z,91
2017-04-28T03:41:07.762Z,90.24
2017-04-28T03:42:16.976Z,90.05
2017-04-28T03:43:26.511Z,90.52
2017-04-28T03:44:36.376Z,90.24
2017-04-28T03:45:45.737Z,90.52
2017-04-28T03:46:54.949Z,89.76
2017-04-28T03:48:03.879Z,89.86
2017-04-28T03:49:13.424Z,89.95
2017-04-28T03:50:22.638Z,90.9
2017-04-28T03:51:31.724Z,90.33
2017-04-28T03:52:40.936Z,90.24
2017-04-28T03:53:50.149Z,90.43
2017-04-28T03:54:59.368Z,91
2017-04-28T03:56:08.579Z,91.28
2017-04-28T03:57:17.617Z,90.62
2017-04-28T03:58:27.158Z,89.86
2017-04-28T03:59:36.380Z,90.05
2017-04-28T04:00:45.295Z,90.9
2017-04-28T04:01:54.510Z,89.95
2017-04-28T04:03:04.049Z,90.24
2017-04-28T04:04:13.587Z,90.52
2017-04-28T04:05:23.451Z,90.14
2017-04-28T04:06:32.334Z,89.95
2017-04-28T04:07:41.235Z,90.05
2017-04-28T04:08:51.151Z,90.52
2017-04-28T04:10:01.018Z,89.95
2017-04-28T04:11:10.233Z,90.24
2017-04-28T04:12:19.778Z,89.95
2017-04-28T04:13:28.992Z,90.33
2017-04-28T04:14:38.274Z,90.43
2017-04-28T04:15:47.489Z,90.05
2017-04-28T04:16:56.375Z,90.24
2017-04-28T04:18:05.583Z,90.52
2017-04-28T04:19:15.449Z,90.14
2017-04-28T04:20:25.240Z,89.95
2017-04-28T04:21:34.451Z,89.76
2017-04-28T04:22:43.340Z,89.58
2017-04-28T04:23:52.229Z,89.48
2017-04-28T04:25:01.766Z,89.76
2017-04-28T04:26:10.898Z,89.67
2017-04-28T04:27:20.108Z,89.67
2017-04-28T04:28:29.336Z,89.67
2017-04-28T04:29:38.555Z,89.48
2017-04-28T04:30:47.442Z,89.48
2017-04-28T04:31:56.756Z,89.48
2017-04-28T04:33:05.977Z,89.33
2017-04-28T04:34:15.194Z,89.2
2017-04-28T04:35:24.415Z,88.91
2017-04-28T04:36:33.304Z,88.81
2017-04-28T04:37:42.240Z,88.72
2017-04-28T04:38:51.779Z,89
2017-04-28T04:40:02.292Z,89.14
2017-04-28T04:41:11.182Z,88.62
2017-04-28T04:42:20.396Z,89
2017-04-28T04:43:29.631Z,88.81
2017-04-28T04:44:38.850Z,88.76
2017-04-28T04:45:48.714Z,88.76
2017-04-28T04:46:57.604Z,89.39
2017-04-28T04:48:06.817Z,88.76
2017-04-28T04:49:16.452Z,89.14
2017-04-28T04:50:26.643Z,88.86
2017-04-28T04:51:36.180Z,89.43
2017-04-28T04:52:46.044Z,88.76
2017-04-28T04:53:55.271Z,88.95
2017-04-28T04:55:05.057Z,89.72
2017-04-28T04:56:13.946Z,88.86
2017-04-28T04:57:23.491Z,89.9
2017-04-28T04:58:32.377Z,89.24
2017-04-28T04:59:41.266Z,89.43
2017-04-28T05:00:50.355Z,88.95
2017-04-28T05:01:59.249Z,89.05
2017-04-28T05:03:08.463Z,89.33
2017-04-28T05:04:17.684Z,89.05
2017-04-28T05:05:27.556Z,88.76
2017-04-28T05:06:36.833Z,88.39
2017-04-28T05:07:47.019Z,88.2
2017-04-28T05:08:56.240Z,89.05
2017-04-28T05:10:05.463Z,88.86
2017-04-28T05:11:14.359Z,89.05
2017-04-28T05:12:23.576Z,89.24
2017-04-28T05:13:32.809Z,89.05
2017-04-28T05:14:42.675Z,88.76
2017-04-28T05:15:51.894Z,88.57
2017-04-28T05:17:01.765Z,88.95
2017-04-28T05:18:10.660Z,89.14
2017-04-28T05:19:20.537Z,88.29
2017-04-28T05:20:30.502Z,88.29
2017-04-28T05:21:39.806Z,88.29
2017-04-28T05:22:49.225Z,87.91
2017-04-28T05:23:58.861Z,88.1
2017-04-28T05:25:08.078Z,87.34
2017-04-28T05:26:17.286Z,87.05
2017-04-28T05:27:26.552Z,87.34
2017-04-28T05:28:35.771Z,87.82
2017-04-28T05:29:45.324Z,87.53
2017-04-28T05:30:54.218Z,87.62
2017-04-28T05:32:03.108Z,87.91
2017-04-28T05:33:12.804Z,86.68
2017-04-28T05:34:22.020Z,86.68
2017-04-28T05:35:31.245Z,86.96
2017-04-28T05:36:40.133Z,86.87
2017-04-28T05:37:49.672Z,86.58
2017-04-28T05:38:59.217Z,87.34
2017-04-28T05:40:09.084Z,86.58
2017-04-28T05:41:18.636Z,86.58
2017-04-28T05:42:27.847Z,86.01
2017-04-28T05:43:36.737Z,86.39
2017-04-28T05:44:46.004Z,86.01
2017-04-28T05:45:55.542Z,85.72
2017-04-28T05:47:04.429Z,85.68
2017-04-28T05:48:13.644Z,86.39
2017-04-28T05:49:23.192Z,86.11
2017-04-28T05:50:32.888Z,86.43
2017-04-28T05:51:42.106Z,86.05
2017-04-28T05:52:51.651Z,86.24
2017-04-28T05:54:01.519Z,86.34
2017-04-28T05:55:10.740Z,85.68
2017-04-28T05:56:20.203Z,86.43
2017-04-28T05:57:29.103Z,86.34
2017-04-28T05:58:38.378Z,86.05
2017-04-28T05:59:49.288Z,85.63
2017-04-28T06:01:00.134Z,86.39
2017-04-28T06:02:10.422Z,85.82
2017-04-28T06:03:20.062Z,85.91
2017-04-28T06:04:29.728Z,86.01
2017-04-28T06:05:39.855Z,85.58
2017-04-28T06:06:49.609Z,85.68
2017-04-28T06:07:59.982Z,85.86
2017-04-28T06:09:09.711Z,85.58
2017-04-28T06:10:19.741Z,85.77
2017-04-28T06:11:29.296Z,85.3
2017-04-28T06:12:38.510Z,85.49
2017-04-28T06:13:48.159Z,85.01
2017-04-28T06:14:57.375Z,85.11
2017-04-28T06:16:07.489Z,84.82
2017-04-28T06:17:17.062Z,84.91
2017-04-28T06:18:25.963Z,85.2
2017-04-28T06:19:35.338Z,84.72
2017-04-28T06:20:44.554Z,85.2
2017-04-28T06:21:53.445Z,85.2
2017-04-28T06:23:02.986Z,85.01
2017-04-28T06:24:12.204Z,85.39
2017-04-28T06:25:21.092Z,85.49
2017-04-28T06:26:30.627Z,85.01
2017-04-28T06:27:40.164Z,84.91
2017-04-28T06:28:49.385Z,84.91
2017-04-28T06:29:58.933Z,85.39
2017-04-28T06:31:07.987Z,85.39
2017-04-28T06:32:17.200Z,85.77
2017-04-28T06:33:26.742Z,85.86
2017-04-28T06:34:35.633Z,85.68
2017-04-28T06:35:45.180Z,85.68
2017-04-28T06:36:54.167Z,85.58
2017-04-28T06:38:03.066Z,85.58
2017-04-28T06:39:12.939Z,85.49
2017-04-28T06:40:21.829Z,85.43
2017-04-28T06:41:30.723Z,85.05
2017-04-28T06:42:40.090Z,85.24
2017-04-28T06:43:49.311Z,85.05
2017-04-28T06:44:58.204Z,85.2
2017-04-28T06:46:07.419Z,85.11
2017-04-28T06:47:16.639Z,84.82
2017-04-28T06:48:26.010Z,84.95
2017-04-28T06:49:35.551Z,84.91
2017-04-28T06:50:44.449Z,84.86
2017-04-28T06:51:53.346Z,84.29
2017-04-28T06:53:02.561Z,84.29
2017-04-28T06:54:11.883Z,84.95
2017-04-28T06:55:22.081Z,84.95
2017-04-28T06:56:31.307Z,84.48
2017-04-28T06:57:40.526Z,84.95
2017-04-28T06:58:49.746Z,84.58
2017-04-28T06:59:58.788Z,84.67
2017-04-28T07:01:08.002Z,84.86
2017-04-28T07:02:17.221Z,84.86
2017-04-28T07:03:26.457Z,84.95
2017-04-28T07:04:36.331Z,85.77
2017-04-28T07:05:45.372Z,85.77
2017-04-28T07:06:54.919Z,85.05
2017-04-28T07:08:04.137Z,84.86
2017-04-28T07:09:13.354Z,85.24
2017-04-28T07:10:22.902Z,84.77
2017-04-28T07:11:31.850Z,85.05
2017-04-28T07:12:41.074Z,85.05
2017-04-28T07:13:50.948Z,84.58
2017-04-28T07:15:01.140Z,84.77
2017-04-28T07:16:10.371Z,85.24
2017-04-28T07:17:19.413Z,85.15
2017-04-28T07:18:29.275Z,85.43
2017-04-28T07:19:38.821Z,85.05
2017-04-28T07:20:48.035Z,85.05
2017-04-28T07:21:57.253Z,85.24
2017-04-28T07:23:06.304Z,85.81
2017-04-28T07:24:15.525Z,85.53
2017-04-28T07:25:24.422Z,85.62
2017-04-28T07:26:33.966Z,85.72
2017-04-28T07:27:43.182Z,86.29
2017-04-28T07:28:52.553Z,85.62
2017-04-28T07:30:01.771Z,86.29
2017-04-28T07:31:10.986Z,86.1
2017-04-28T07:32:19.878Z,86.19
2017-04-28T07:33:29.100Z,86.29
2017-04-28T07:34:38.590Z,86.19
2017-04-28T07:35:47.484Z,86.38
2017-04-28T07:36:56.703Z,86.76
2017-04-28T07:38:05.593Z,86.86
2017-04-28T07:39:14.492Z,87.24
2017-04-28T07:40:23.634Z,87.14
2017-04-28T07:41:33.213Z,86.95
2017-04-28T07:42:42.110Z,87.05
2017-04-28T07:43:51.005Z,86.95
2017-04-28T07:45:00.219Z,86.67
2017-04-28T07:46:09.493Z,86.29
2017-04-28T07:47:18.711Z,86.29
2017-04-28T07:48:28.578Z,86.29
2017-04-28T07:49:37.476Z,86.86
2017-04-28T07:50:46.700Z,86.76
2017-04-28T07:51:56.166Z,86.29
2017-04-28T07:53:05.084Z,86.19
2017-04-28T07:54:14.301Z,86.57
2017-04-28T07:55:23.201Z,86.38
2017-04-28T07:56:32.424Z,87.05
2017-04-28T07:57:41.334Z,86.67
2017-04-28T07:58:50.227Z,86.29
2017-04-28T07:59:59.128Z,85.91
2017-04-28T08:01:08.353Z,86.57
2017-04-28T08:02:17.249Z,86.47
2017-04-28T08:03:26.668Z,86.57
2017-04-28T08:04:36.207Z,86.19
2017-04-28T08:05:45.745Z,86.47
2017-04-28T08:06:54.638Z,86.1
2017-04-28T08:08:03.858Z,86.1
2017-04-28T08:09:12.953Z,86.1
2017-04-28T08:10:21.844Z,86.95
2017-04-28T08:11:31.079Z,86.67
2017-04-28T08:12:39.972Z,86.67
2017-04-28T08:13:49.189Z,86.76
2017-04-28T08:14:58.188Z,87.05
2017-04-28T08:16:07.083Z,86.57
2017-04-28T08:17:16.006Z,86.38
2017-04-28T08:18:25.555Z,87.24
2017-04-28T08:19:35.103Z,87.24
2017-04-28T08:20:44.348Z,87.05
2017-04-28T08:21:53.892Z,86.86
2017-04-28T08:23:02.787Z,86.76
2017-04-28T08:24:12.327Z,86.76
2017-04-28T08:25:21.243Z,87.05
2017-04-28T08:26:30.289Z,86.67
2017-04-28T08:27:39.180Z,86.76
2017-04-28T08:28:48.752Z,86.57
2017-04-28T08:29:57.648Z,86.76
2017-04-28T08:31:06.552Z,86
2017-04-28T08:32:15.933Z,86.1
2017-04-28T08:33:24.830Z,86.1
2017-04-28T08:34:34.374Z,85.62
2017-04-28T08:35:43.922Z,85.81
2017-04-28T08:36:52.811Z,86.29
2017-04-28T08:38:01.860Z,85.72
2017-04-28T08:39:10.756Z,85.53
2017-04-28T08:40:19.979Z,85.81
2017-04-28T08:41:28.875Z,85.62
2017-04-28T08:42:38.416Z,85.66
2017-04-28T08:43:47.983Z,84.81
2017-04-28T08:44:57.201Z,85.38
2017-04-28T08:46:07.066Z,84.81
2017-04-28T08:47:16.293Z,84.72
2017-04-28T08:48:26.162Z,84.72
2017-04-28T08:49:35.856Z,84.52
2017-04-28T08:50:45.072Z,84.52
2017-04-28T08:51:53.963Z,84.14
2017-04-28T08:53:02.857Z,84.43
2017-04-28T08:54:12.088Z,84.33
2017-04-28T08:55:21.457Z,83.95
2017-04-28T08:56:30.351Z,84.14
2017-04-28T08:57:39.247Z,84.14
2017-04-28T08:58:48.468Z,84.24
2017-04-28T08:59:57.688Z,84.14
2017-04-28T09:01:07.538Z,83.76
2017-04-28T09:02:16.760Z,84.14
2017-04-28T09:03:25.979Z,83.95
2017-04-28T09:04:35.201Z,83.67
2017-04-28T09:05:44.419Z,84.24
2017-04-28T09:06:53.992Z,84.43
2017-04-28T09:08:03.534Z,84.14
2017-04-28T09:09:13.077Z,84.52
2017-04-28T09:10:22.947Z,84.43
2017-04-28T09:11:32.171Z,83.95
2017-04-28T09:12:41.217Z,84.52
2017-04-28T09:13:50.430Z,84.33
2017-04-28T09:14:59.320Z,84.05
2017-04-28T09:16:08.540Z,84.52
2017-04-28T09:17:17.432Z,84.52
2017-04-28T09:18:26.683Z,84.24
2017-04-28T09:19:35.577Z,84.24
2017-04-28T09:20:44.803Z,84.33
2017-04-28T09:21:53.696Z,84.05
2017-04-28T09:23:02.594Z,84.33
2017-04-28T09:24:12.338Z,83.86
2017-04-28T09:25:21.557Z,84.24
2017-04-28T09:26:30.788Z,84.14
2017-04-28T09:27:40.005Z,84.47
2017-04-28T09:28:48.902Z,84
2017-04-28T09:29:58.608Z,84.28
2017-04-28T09:31:07.836Z,83.9
2017-04-28T09:32:17.060Z,83.62
2017-04-28T09:33:26.303Z,83.81
2017-04-28T09:34:35.516Z,84.28
2017-04-28T09:35:44.882Z,83.95
2017-04-28T09:36:53.774Z,84
2017-04-28T09:38:02.669Z,83.81
2017-04-28T09:39:11.887Z,83.33
2017-04-28T09:40:21.112Z,83.04
2017-04-28T09:41:30.007Z,82.19
2017-04-28T09:42:38.902Z,81.9
2017-04-28T09:43:47.808Z,82.38
2017-04-28T09:44:56.703Z,82.57
2017-04-28T09:46:05.925Z,82.57
2017-04-28T09:47:15.204Z,83.04
2017-04-28T09:48:24.102Z,82.09
2017-04-28T09:49:32.992Z,81.76
2017-04-28T09:50:42.209Z,82.23
2017-04-28T09:51:51.131Z,81.76
2017-04-28T09:53:00.406Z,81.66
2017-04-28T09:54:09.303Z,81.85
2017-04-28T09:55:18.524Z,81.85
2017-04-28T09:56:27.421Z,81.56
2017-04-28T09:57:36.641Z,81.56
2017-04-28T09:58:45.795Z,81.47
2017-04-28T09:59:55.017Z,81.56
2017-04-28T10:01:03.908Z,81.28
2017-04-28T10:02:12.807Z,80.8
2017-04-28T10:03:21.726Z,81.09
2017-04-28T10:04:30.724Z,80.71
2017-04-28T10:05:40.275Z,80.71
2017-04-28T10:06:49.522Z,80.9
2017-04-28T10:07:58.419Z,80.42
2017-04-28T10:09:07.637Z,80.9
2017-04-28T10:10:16.608Z,80.8
2017-04-28T10:11:26.178Z,80.61
2017-04-28T10:12:35.396Z,80.75
2017-04-28T10:13:44.972Z,79.94
2017-04-28T10:14:54.266Z,80.04
2017-04-28T10:16:03.550Z,79.89
2017-04-28T10:17:12.768Z,79.94
2017-04-28T10:18:21.686Z,79.41
2017-04-28T10:19:31.233Z,79.51
2017-04-28T10:20:41.118Z,79.89
2017-04-28T10:21:50.171Z,79.41
2017-04-28T10:22:59.071Z,79.89
2017-04-28T10:24:07.974Z,80.65
2017-04-28T10:25:17.228Z,80.65
2017-04-28T10:26:26.124Z,80.36
2017-04-28T10:27:35.431Z,79.32
2017-04-28T10:28:44.657Z,78.75
2017-04-28T10:29:53.592Z,79.41
2017-04-28T10:31:02.834Z,79.32
2017-04-28T10:32:11.729Z,79.22
2017-04-28T10:33:20.874Z,78.56
2017-04-28T10:34:30.153Z,78.65
2017-04-28T10:35:39.049Z,78.75
2017-04-28T10:36:47.946Z,78.37
2017-04-28T10:37:56.838Z,78.17
2017-04-28T10:39:05.929Z,78.08
2017-04-28T10:40:15.559Z,78.37
2017-04-28T10:41:25.141Z,78.31
2017-04-28T10:42:34.370Z,78.22
2017-04-28T10:43:43.590Z,78.03
2017-04-28T10:44:53.035Z,77.64
2017-04-28T10:46:02.275Z,77.74
2017-04-28T10:47:11.495Z,77.64
2017-04-28T10:48:20.717Z,77.26
2017-04-28T10:49:29.937Z,77.17
2017-04-28T10:50:39.405Z,77.26
2017-04-28T10:51:48.312Z,77.55
2017-04-28T10:52:57.254Z,77.83
2017-04-28T10:54:06.477Z,77.74
2017-04-28T10:55:15.973Z,77.26
2017-04-28T10:56:25.557Z,77.17
2017-04-28T10:57:34.459Z,76.4
2017-04-28T10:58:43.698Z,76.4
2017-04-28T10:59:52.949Z,77.07
2017-04-28T11:01:02.203Z,76.12
2017-04-28T11:02:11.491Z,75.45
2017-04-28T11:03:20.745Z,75.64
2017-04-28T11:04:29.662Z,74.44
2017-04-28T11:05:39.213Z,74.35
2017-04-28T11:06:48.638Z,74.35
2017-04-28T11:07:57.586Z,74.35
2017-04-28T11:09:06.485Z,74.35
2017-04-28T11:10:15.386Z,74.35
2017-04-28T11:11:24.963Z,74.54
2017-04-28T11:12:35.054Z,74.25
2017-04-28T11:13:45.149Z,75.3
2017-04-28T11:14:54.415Z,75.2
2017-04-28T11:16:03.670Z,75.49
2017-04-28T11:17:12.631Z,74.73
2017-04-28T11:18:21.603Z,74.35
2017-04-28T11:19:31.009Z,74.06
2017-04-28T11:20:39.916Z,73.96
2017-04-28T11:21:48.902Z,73.96
2017-04-28T11:22:58.415Z,74.44
2017-04-28T11:24:07.314Z,74.06
2017-04-28T11:25:16.510Z,74.44
2017-04-28T11:26:25.732Z,74.25
2017-04-28T11:27:35.292Z,73.96
2017-04-28T11:28:44.511Z,73.39
2017-04-28T11:29:53.741Z,72.53
2017-04-28T11:31:03.472Z,72.72
2017-04-28T11:32:12.700Z,73.01
2017-04-28T11:33:22.575Z,71.87
2017-04-28T11:34:31.806Z,71.81
2017-04-28T11:35:41.045Z,71.62
2017-04-28T11:36:50.565Z,72.19
2017-04-28T11:37:59.793Z,70.76
2017-04-28T11:39:09.338Z,69.62
2017-04-28T11:40:18.236Z,69.81
2017-04-28T11:41:27.134Z,69.81
2017-04-28T11:42:36.979Z,70.47
2017-04-28T11:43:46.530Z,70.28
2017-04-28T11:44:55.426Z,70.28
2017-04-28T11:46:04.650Z,69.56
2017-04-28T11:47:14.205Z,69.08
2017-04-28T11:48:23.901Z,67.83
2017-04-28T11:49:32.796Z,68.51
2017-04-28T11:50:41.689Z,68.79
2017-04-28T11:51:50.585Z,68.41
2017-04-28T11:52:59.486Z,67.36
2017-04-28T11:54:08.862Z,66.5
2017-04-28T11:55:18.091Z,66.25
2017-04-28T11:56:27.338Z,65.96
2017-04-28T11:57:36.236Z,65.87
2017-04-28T11:58:45.133Z,64.81
2017-04-28T11:59:54.083Z,64.69
2017-04-28T12:01:03.635Z,65.83
2017-04-28T12:02:12.859Z,66.22
2017-04-28T12:03:22.085Z,67.93
2017-04-28T12:04:30.990Z,67.17
2017-04-28T12:05:40.790Z,66.6
2017-04-28T12:06:50.008Z,66.69
2017-04-28T12:07:59.237Z,66.5
2017-04-28T12:09:08.133Z,66.78
2017-04-28T12:10:17.029Z,66.41
2017-04-28T12:11:25.982Z,64.91
2017-04-28T12:12:34.882Z,64.75
2017-04-28T12:13:44.439Z,61.69
2017-04-28T12:14:53.338Z,60.93
2017-04-28T12:16:03.214Z,61.51
2017-04-28T12:17:12.645Z,60.49
2017-04-28T12:18:21.544Z,61.06
2017-04-28T12:19:30.772Z,61.79
2017-04-28T12:20:40.652Z,62.08
2017-04-28T12:21:49.564Z,60.93
2017-04-28T12:22:58.564Z,62.37
2017-04-28T12:24:07.799Z,62.08
2017-04-28T12:25:17.030Z,63.29
2017-04-28T12:26:25.932Z,63.8
2017-04-28T12:27:34.861Z,60.84
2017-04-28T12:28:44.562Z,60.84
2017-04-28T12:29:53.786Z,61.32
2017-04-28T12:31:03.011Z,61.41
2017-04-28T12:32:11.914Z,61.13
2017-04-28T12:33:21.787Z,61.32
2017-04-28T12:34:30.742Z,61.57
2017-04-28T12:35:40.293Z,61.76
2017-04-28T12:36:49.200Z,61.95
2017-04-28T12:37:58.422Z,61.86
2017-04-28T12:39:07.978Z,62.34
2017-04-28T12:40:16.926Z,63.35
2017-04-28T12:41:25.823Z,63.73
2017-04-28T12:42:35.045Z,63.64
2017-04-28T12:43:43.942Z,64.78
2017-04-28T12:44:52.839Z,63.26
2017-04-28T12:46:02.441Z,63.83
2017-04-28T12:47:11.668Z,63.83
2017-04-28T12:48:20.894Z,64.4
2017-04-28T12:49:30.479Z,64.59
2017-04-28T12:50:40.514Z,64.4
2017-04-28T12:51:50.348Z,65.17
2017-04-28T12:52:59.710Z,64.78
2017-04-28T12:54:08.934Z,64.88
2017-04-28T12:55:17.836Z,64.21
2017-04-28T12:56:26.741Z,64.5
2017-04-28T12:57:35.797Z,64.69
2017-04-28T12:58:45.027Z,63.83
2017-04-28T12:59:54.253Z,64.12
2017-04-28T13:01:03.155Z,63.83
2017-04-28T13:02:12.377Z,63.92
2017-04-28T13:03:21.423Z,64.5
2017-04-28T13:04:30.643Z,63.83
2017-04-28T13:05:39.543Z,63.83
2017-04-28T13:06:48.450Z,63.67
2017-04-28T13:07:57.684Z,63.83
2017-04-28T13:09:07.201Z,63.92
2017-04-28T13:10:16.748Z,64.4
2017-04-28T13:11:25.650Z,64.21
2017-04-28T13:12:34.580Z,64.88
2017-04-28T13:13:44.127Z,65.17
2017-04-28T13:14:53.326Z,65.17
2017-04-28T13:16:02.222Z,65.17
2017-04-28T13:17:11.117Z,65.07
2017-04-28T13:18:20.337Z,63.73
2017-04-28T13:19:29.557Z,64.4
2017-04-28T13:20:39.202Z,66.69
2017-04-28T13:21:48.098Z,67.9
2017-04-28T13:22:57.320Z,69.14
2017-04-28T13:24:06.869Z,70.38
2017-04-28T13:25:16.096Z,71.96
2017-04-28T13:26:25.467Z,72
2017-04-28T13:27:34.360Z,72.38
2017-04-28T13:28:43.579Z,73.62
2017-04-28T13:29:52.808Z,74.92
2017-04-28T13:31:02.031Z,76.25
2017-04-28T13:32:11.077Z,76.25
2017-04-28T13:33:20.301Z,77.45
2017-04-28T13:34:29.520Z,77.55
2017-04-28T13:35:39.068Z,78.69
2017-04-28T13:36:48.283Z,79.36
2017-04-28T13:37:57.503Z,80.79
2017-04-28T13:39:07.374Z,82.03
2017-04-28T13:40:16.595Z,81.74
2017-04-28T13:41:25.821Z,81.79
2017-04-28T13:42:35.047Z,83.51
2017-04-28T13:43:44.432Z,83.51
2017-04-28T13:44:53.342Z,83.03
2017-04-28T13:46:02.266Z,83.89
2017-04-28T13:47:11.822Z,84.94
2017-04-28T13:48:21.052Z,86.99
2017-04-28T13:49:30.431Z,89.65
2017-04-28T13:50:39.337Z,91.84
2017-04-28T13:51:48.617Z,92.56
2017-04-28T13:52:57.520Z,93.55
2017-04-28T13:54:06.420Z,97.31
2017-04-28T13:55:15.476Z,99.99
2017-04-28T13:56:24.712Z,99.99
2017-04-28T13:57:33.952Z,99.99
2017-04-28T13:58:42.860Z,99.99
2017-04-28T13:59:52.090Z,99.99
2017-04-28T14:01:01.700Z,99.99
2017-04-28T14:02:10.606Z,99.99
2017-04-28T14:03:20.156Z,99.99
2017-04-28T14:04:29.401Z,99.99
2017-04-28T14:05:38.629Z,99.99
2017-04-28T14:06:47.683Z,99.99
2017-04-28T14:07:56.911Z,99.99
2017-04-28T14:09:05.812Z,99.99
2017-04-28T14:10:14.715Z,99.99
2017-04-28T14:11:23.939Z,99.99
2017-04-28T14:12:32.890Z,99.99
2017-04-28T14:13:42.107Z,99.99
2017-04-28T14:14:51.328Z,99.99
2017-04-28T14:16:00.910Z,99.99
2017-04-28T14:17:10.459Z,99.99
2017-04-28T14:18:20.054Z,99.99
2017-04-28T14:19:29.270Z,99.99
2017-04-28T14:20:38.810Z,99.99
2017-04-28T14:21:48.031Z,99.99
2017-04-28T14:22:57.255Z,99.99
2017-04-28T14:24:06.316Z,99.99
2017-04-28T14:25:15.866Z,99.99
2017-04-28T14:26:25.084Z,99.99
2017-04-28T14:27:34.306Z,99.99
2017-04-28T14:28:43.521Z,99.99
2017-04-28T14:29:52.471Z,99.99
2017-04-28T14:31:01.748Z,99.99
2017-04-28T14:32:11.295Z,99.99
2017-04-28T14:33:20.191Z,99.99
2017-04-28T14:34:29.089Z,99.99
2017-04-28T14:35:38.033Z,99.99
2017-04-28T14:36:47.254Z,99.99
2017-04-28T14:37:56.799Z,99.99
2017-04-28T14:39:05.694Z,99.99
2017-04-28T14:40:14.925Z,99.99
2017-04-28T14:41:24.549Z,99.99
2017-04-28T14:42:33.444Z,99.99
2017-04-28T14:43:42.677Z,99.99
2017-04-28T14:44:51.569Z,99.99
2017-04-28T14:46:00.464Z,99.99
2017-04-28T14:47:09.656Z,99.99
2017-04-28T14:48:18.886Z,99.99
2017-04-28T14:49:27.784Z,99.99
2017-04-28T14:50:37.335Z,99.99
2017-04-28T14:51:46.249Z,99.99
2017-04-28T14:52:55.302Z,99.99
2017-04-28T14:54:05.170Z,99.99
2017-04-28T14:55:14.388Z,99.99
2017-04-28T14:56:23.281Z,99.99